sensor_id;sensor_type;location;lat;lon;timestamp;P1;durP1;ratioP1;P2;durP2;ratioP2
23474;SDS011;11910;52.086;21.066;2024-01-07T00:01:46;24.08;;;14.68;;
23474;SDS011;11910;52.086;21.066;2024-01-07T00:04:15;23.08;;;13.45;;
23474;SDS011;11910;52.086;21.066;2024-01-07T00:06:41;26.88;;;16.00;;
23474;SDS011;11910;52.086;21.066;2024-01-07T00:09:07;20.55;;;12.73;;
23474;SDS011;11910;52.086;21.066;2024-01-07T00:11:33;20.67;;;13.70;;
23474;SDS011;11910;52.086;21.066;2024-01-07T00:13:58;19.73;;;13.25;;
23474;SDS011;11910;52.086;21.066;2024-01-07T00:16:24;18.52;;;11.77;;
23474;SDS011;11910;52.086;21.066;2024-01-07T00:18:49;19.35;;;12.25;;
23474;SDS011;11910;52.086;21.066;2024-01-07T00:21:15;21.27;;;12.40;;
23474;SDS011;11910;52.086;21.066;2024-01-07T00:23:40;18.67;;;12.02;;
23474;SDS011;11910;52.086;21.066;2024-01-07T00:26:06;21.15;;;12.15;;
23474;SDS011;11910;52.086;21.066;2024-01-07T00:28:32;21.13;;;13.35;;
23474;SDS011;11910;52.086;21.066;2024-01-07T00:30:58;20.98;;;12.77;;
23474;SDS011;11910;52.086;21.066;2024-01-07T00:33:23;20.38;;;12.93;;
23474;SDS011;11910;52.086;21.066;2024-01-07T00:35:49;21.55;;;13.50;;
23474;SDS011;11910;52.086;21.066;2024-01-07T00:38:14;21.48;;;13.38;;
23474;SDS011;11910;52.086;21.066;2024-01-07T00:40:40;18.85;;;11.57;;
23474;SDS011;11910;52.086;21.066;2024-01-07T00:43:06;19.48;;;12.27;;
23474;SDS011;11910;52.086;21.066;2024-01-07T00:45:31;23.35;;;13.63;;
23474;SDS011;11910;52.086;21.066;2024-01-07T00:47:57;22.83;;;14.35;;
23474;SDS011;11910;52.086;21.066;2024-01-07T00:50:22;24.02;;;15.57;;
23474;SDS011;11910;52.086;21.066;2024-01-07T00:52:48;22.73;;;14.40;;
23474;SDS011;11910;52.086;21.066;2024-01-07T00:55:14;24.63;;;14.63;;
23474;SDS011;11910;52.086;21.066;2024-01-07T00:57:40;23.98;;;15.20;;
23474;SDS011;11910;52.086;21.066;2024-01-07T01:00:06;25.23;;;14.80;;
23474;SDS011;11910;52.086;21.066;2024-01-07T01:02:32;23.88;;;14.95;;
23474;SDS011;11910;52.086;21.066;2024-01-07T01:04:58;25.25;;;15.05;;
23474;SDS011;11910;52.086;21.066;2024-01-07T01:07:25;22.98;;;14.85;;
23474;SDS011;11910;52.086;21.066;2024-01-07T01:09:50;26.05;;;14.88;;
23474;SDS011;11910;52.086;21.066;2024-01-07T01:12:16;24.23;;;15.25;;
23474;SDS011;11910;52.086;21.066;2024-01-07T01:14:41;23.58;;;14.82;;
23474;SDS011;11910;52.086;21.066;2024-01-07T01:17:07;24.08;;;14.55;;
23474;SDS011;11910;52.086;21.066;2024-01-07T01:19:33;23.48;;;14.85;;
23474;SDS011;11910;52.086;21.066;2024-01-07T01:21:58;23.15;;;14.38;;
23474;SDS011;11910;52.086;21.066;2024-01-07T01:24:24;23.88;;;15.30;;
23474;SDS011;11910;52.086;21.066;2024-01-07T01:26:49;22.40;;;14.77;;
23474;SDS011;11910;52.086;21.066;2024-01-07T01:29:15;24.52;;;14.85;;
23474;SDS011;11910;52.086;21.066;2024-01-07T01:31:41;21.63;;;14.25;;
23474;SDS011;11910;52.086;21.066;2024-01-07T01:34:06;23.30;;;14.45;;
23474;SDS011;11910;52.086;21.066;2024-01-07T01:36:32;24.30;;;14.57;;
23474;SDS011;11910;52.086;21.066;2024-01-07T01:38:57;23.15;;;14.43;;
23474;SDS011;11910;52.086;21.066;2024-01-07T01:41:23;22.90;;;14.43;;
23474;SDS011;11910;52.086;21.066;2024-01-07T01:43:48;24.92;;;14.75;;
23474;SDS011;11910;52.086;21.066;2024-01-07T01:46:14;23.10;;;14.52;;
23474;SDS011;11910;52.086;21.066;2024-01-07T01:48:40;22.25;;;13.60;;
23474;SDS011;11910;52.086;21.066;2024-01-07T01:51:06;21.50;;;13.88;;
23474;SDS011;11910;52.086;21.066;2024-01-07T01:53:33;23.23;;;14.70;;
23474;SDS011;11910;52.086;21.066;2024-01-07T01:55:59;23.08;;;14.18;;
23474;SDS011;11910;52.086;21.066;2024-01-07T01:58:28;22.02;;;13.77;;
23474;SDS011;11910;52.086;21.066;2024-01-07T02:00:54;22.60;;;14.30;;
23474;SDS011;11910;52.086;21.066;2024-01-07T02:03:20;22.23;;;13.85;;
23474;SDS011;11910;52.086;21.066;2024-01-07T02:05:45;23.70;;;14.32;;
23474;SDS011;11910;52.086;21.066;2024-01-07T02:08:14;20.75;;;13.57;;
23474;SDS011;11910;52.086;21.066;2024-01-07T02:10:40;22.60;;;13.38;;
23474;SDS011;11910;52.086;21.066;2024-01-07T02:13:05;20.85;;;13.55;;
23474;SDS011;11910;52.086;21.066;2024-01-07T02:15:31;18.40;;;12.20;;
23474;SDS011;11910;52.086;21.066;2024-01-07T02:17:57;21.52;;;12.75;;
23474;SDS011;11910;52.086;21.066;2024-01-07T02:20:23;20.55;;;12.80;;
23474;SDS011;11910;52.086;21.066;2024-01-07T02:22:48;19.73;;;12.63;;
23474;SDS011;11910;52.086;21.066;2024-01-07T02:25:14;19.20;;;12.20;;
23474;SDS011;11910;52.086;21.066;2024-01-07T02:27:40;19.25;;;11.70;;
23474;SDS011;11910;52.086;21.066;2024-01-07T02:30:05;18.23;;;12.00;;
23474;SDS011;11910;52.086;21.066;2024-01-07T02:32:32;18.42;;;12.10;;
23474;SDS011;11910;52.086;21.066;2024-01-07T02:34:59;18.40;;;11.80;;
23474;SDS011;11910;52.086;21.066;2024-01-07T02:37:25;17.02;;;11.02;;
23474;SDS011;11910;52.086;21.066;2024-01-07T02:39:51;19.92;;;11.82;;
23474;SDS011;11910;52.086;21.066;2024-01-07T02:42:16;16.55;;;11.13;;
23474;SDS011;11910;52.086;21.066;2024-01-07T02:44:42;18.40;;;11.75;;
23474;SDS011;11910;52.086;21.066;2024-01-07T02:47:07;17.77;;;10.93;;
23474;SDS011;11910;52.086;21.066;2024-01-07T02:49:33;18.00;;;11.20;;
23474;SDS011;11910;52.086;21.066;2024-01-07T02:51:59;18.70;;;11.40;;
23474;SDS011;11910;52.086;21.066;2024-01-07T02:54:24;17.88;;;11.23;;
23474;SDS011;11910;52.086;21.066;2024-01-07T02:56:50;17.48;;;10.40;;
23474;SDS011;11910;52.086;21.066;2024-01-07T02:59:16;16.27;;;9.90;;
23474;SDS011;11910;52.086;21.066;2024-01-07T03:01:41;15.73;;;10.18;;
23474;SDS011;11910;52.086;21.066;2024-01-07T03:04:10;15.65;;;10.15;;
23474;SDS011;11910;52.086;21.066;2024-01-07T03:06:37;16.50;;;10.55;;
23474;SDS011;11910;52.086;21.066;2024-01-07T03:09:03;16.13;;;10.30;;
23474;SDS011;11910;52.086;21.066;2024-01-07T03:11:29;16.38;;;10.60;;
23474;SDS011;11910;52.086;21.066;2024-01-07T03:13:54;16.75;;;10.80;;
23474;SDS011;11910;52.086;21.066;2024-01-07T03:16:21;15.77;;;10.35;;
23474;SDS011;11910;52.086;21.066;2024-01-07T03:18:47;15.52;;;10.50;;
23474;SDS011;11910;52.086;21.066;2024-01-07T03:21:17;14.68;;;10.23;;
23474;SDS011;11910;52.086;21.066;2024-01-07T03:23:47;15.55;;;10.70;;
23474;SDS011;11910;52.086;21.066;2024-01-07T03:26:13;15.77;;;10.68;;
23474;SDS011;11910;52.086;21.066;2024-01-07T03:28:39;16.42;;;10.88;;
23474;SDS011;11910;52.086;21.066;2024-01-07T03:31:05;16.98;;;10.35;;
23474;SDS011;11910;52.086;21.066;2024-01-07T03:33:36;15.02;;;10.60;;
23474;SDS011;11910;52.086;21.066;2024-01-07T03:36:06;17.63;;;10.82;;
23474;SDS011;11910;52.086;21.066;2024-01-07T03:38:36;16.35;;;10.93;;
23474;SDS011;11910;52.086;21.066;2024-01-07T03:41:02;17.50;;;11.68;;
23474;SDS011;11910;52.086;21.066;2024-01-07T03:43:28;15.27;;;10.85;;
23474;SDS011;11910;52.086;21.066;2024-01-07T03:45:54;14.98;;;10.32;;
23474;SDS011;11910;52.086;21.066;2024-01-07T03:48:20;16.17;;;10.77;;
23474;SDS011;11910;52.086;21.066;2024-01-07T03:50:45;17.95;;;11.32;;
23474;SDS011;11910;52.086;21.066;2024-01-07T03:53:11;14.98;;;11.02;;
23474;SDS011;11910;52.086;21.066;2024-01-07T03:55:37;16.55;;;11.20;;
23474;SDS011;11910;52.086;21.066;2024-01-07T03:58:02;17.10;;;11.18;;
23474;SDS011;11910;52.086;21.066;2024-01-07T04:00:29;16.95;;;11.05;;
23474;SDS011;11910;52.086;21.066;2024-01-07T04:02:54;14.95;;;10.65;;
23474;SDS011;11910;52.086;21.066;2024-01-07T04:05:20;16.58;;;11.15;;
23474;SDS011;11910;52.086;21.066;2024-01-07T04:07:45;15.20;;;11.48;;
23474;SDS011;11910;52.086;21.066;2024-01-07T04:10:11;16.58;;;11.35;;
23474;SDS011;11910;52.086;21.066;2024-01-07T04:12:36;16.52;;;11.98;;
23474;SDS011;11910;52.086;21.066;2024-01-07T04:15:02;16.95;;;11.40;;
23474;SDS011;11910;52.086;21.066;2024-01-07T04:17:29;17.17;;;11.23;;
23474;SDS011;11910;52.086;21.066;2024-01-07T04:19:54;15.57;;;10.45;;
23474;SDS011;11910;52.086;21.066;2024-01-07T04:22:20;17.20;;;11.25;;
23474;SDS011;11910;52.086;21.066;2024-01-07T04:24:46;16.80;;;11.10;;
23474;SDS011;11910;52.086;21.066;2024-01-07T04:27:11;16.30;;;11.25;;
23474;SDS011;11910;52.086;21.066;2024-01-07T04:29:37;16.33;;;11.40;;
23474;SDS011;11910;52.086;21.066;2024-01-07T04:32:03;16.75;;;11.70;;
23474;SDS011;11910;52.086;21.066;2024-01-07T04:34:28;17.67;;;11.40;;
23474;SDS011;11910;52.086;21.066;2024-01-07T04:36:54;16.38;;;11.00;;
23474;SDS011;11910;52.086;21.066;2024-01-07T04:39:20;16.98;;;11.60;;
23474;SDS011;11910;52.086;21.066;2024-01-07T04:41:45;17.05;;;11.30;;
23474;SDS011;11910;52.086;21.066;2024-01-07T04:44:11;16.52;;;10.95;;
23474;SDS011;11910;52.086;21.066;2024-01-07T04:46:39;15.77;;;11.00;;
23474;SDS011;11910;52.086;21.066;2024-01-07T04:49:05;16.35;;;11.40;;
23474;SDS011;11910;52.086;21.066;2024-01-07T04:51:31;15.88;;;11.40;;
23474;SDS011;11910;52.086;21.066;2024-01-07T04:54:01;15.95;;;11.65;;
23474;SDS011;11910;52.086;21.066;2024-01-07T04:56:27;16.52;;;11.80;;
23474;SDS011;11910;52.086;21.066;2024-01-07T04:58:53;16.70;;;11.25;;
23474;SDS011;11910;52.086;21.066;2024-01-07T05:01:18;20.75;;;14.05;;
23474;SDS011;11910;52.086;21.066;2024-01-07T05:03:44;18.88;;;13.98;;
23474;SDS011;11910;52.086;21.066;2024-01-07T05:06:09;17.85;;;12.40;;
23474;SDS011;11910;52.086;21.066;2024-01-07T05:08:36;20.02;;;13.15;;
23474;SDS011;11910;52.086;21.066;2024-01-07T05:11:02;19.50;;;13.02;;
23474;SDS011;11910;52.086;21.066;2024-01-07T05:13:28;17.25;;;12.25;;
23474;SDS011;11910;52.086;21.066;2024-01-07T05:15:54;18.25;;;12.80;;
23474;SDS011;11910;52.086;21.066;2024-01-07T05:18:20;16.98;;;11.82;;
23474;SDS011;11910;52.086;21.066;2024-01-07T05:20:47;17.35;;;11.70;;
23474;SDS011;11910;52.086;21.066;2024-01-07T05:23:12;19.45;;;12.55;;
23474;SDS011;11910;52.086;21.066;2024-01-07T05:25:38;18.65;;;11.95;;
23474;SDS011;11910;52.086;21.066;2024-01-07T05:28:04;20.33;;;12.85;;
23474;SDS011;11910;52.086;21.066;2024-01-07T05:30:29;21.92;;;12.35;;
23474;SDS011;11910;52.086;21.066;2024-01-07T05:32:55;20.15;;;12.50;;
23474;SDS011;11910;52.086;21.066;2024-01-07T05:35:21;18.45;;;12.38;;
23474;SDS011;11910;52.086;21.066;2024-01-07T05:37:46;19.60;;;12.02;;
23474;SDS011;11910;52.086;21.066;2024-01-07T05:40:12;18.63;;;11.23;;
23474;SDS011;11910;52.086;21.066;2024-01-07T05:42:37;16.25;;;10.73;;
23474;SDS011;11910;52.086;21.066;2024-01-07T05:45:03;20.35;;;11.68;;
23474;SDS011;11910;52.086;21.066;2024-01-07T05:47:29;19.27;;;11.85;;
23474;SDS011;11910;52.086;21.066;2024-01-07T05:49:55;19.08;;;12.07;;
23474;SDS011;11910;52.086;21.066;2024-01-07T05:52:20;21.25;;;12.35;;
23474;SDS011;11910;52.086;21.066;2024-01-07T05:54:46;19.77;;;12.43;;
23474;SDS011;11910;52.086;21.066;2024-01-07T05:57:12;17.73;;;11.65;;
23474;SDS011;11910;52.086;21.066;2024-01-07T05:59:37;17.20;;;11.30;;
23474;SDS011;11910;52.086;21.066;2024-01-07T06:02:03;18.85;;;12.00;;
23474;SDS011;11910;52.086;21.066;2024-01-07T06:04:28;19.10;;;12.10;;
23474;SDS011;11910;52.086;21.066;2024-01-07T06:06:54;17.70;;;11.80;;
23474;SDS011;11910;52.086;21.066;2024-01-07T06:09:20;19.05;;;11.70;;
23474;SDS011;11910;52.086;21.066;2024-01-07T06:11:45;17.55;;;11.85;;
23474;SDS011;11910;52.086;21.066;2024-01-07T06:14:11;18.45;;;11.82;;
23474;SDS011;11910;52.086;21.066;2024-01-07T06:16:37;19.77;;;11.77;;
23474;SDS011;11910;52.086;21.066;2024-01-07T06:19:03;19.60;;;11.98;;
23474;SDS011;11910;52.086;21.066;2024-01-07T06:21:28;21.33;;;12.32;;
23474;SDS011;11910;52.086;21.066;2024-01-07T06:23:54;19.35;;;11.77;;
23474;SDS011;11910;52.086;21.066;2024-01-07T06:26:20;16.98;;;11.23;;
23474;SDS011;11910;52.086;21.066;2024-01-07T06:28:45;16.30;;;11.07;;
23474;SDS011;11910;52.086;21.066;2024-01-07T06:31:11;16.55;;;11.27;;
23474;SDS011;11910;52.086;21.066;2024-01-07T06:33:37;15.82;;;10.95;;
23474;SDS011;11910;52.086;21.066;2024-01-07T06:36:02;16.42;;;11.30;;
23474;SDS011;11910;52.086;21.066;2024-01-07T06:38:29;18.48;;;12.20;;
23474;SDS011;11910;52.086;21.066;2024-01-07T06:40:54;17.65;;;12.15;;
23474;SDS011;11910;52.086;21.066;2024-01-07T06:43:20;18.88;;;11.70;;
23474;SDS011;11910;52.086;21.066;2024-01-07T06:45:46;18.80;;;12.15;;
23474;SDS011;11910;52.086;21.066;2024-01-07T06:48:11;17.15;;;11.65;;
23474;SDS011;11910;52.086;21.066;2024-01-07T06:50:37;16.88;;;11.70;;
23474;SDS011;11910;52.086;21.066;2024-01-07T06:53:03;17.15;;;11.50;;
23474;SDS011;11910;52.086;21.066;2024-01-07T06:55:28;16.55;;;11.38;;
23474;SDS011;11910;52.086;21.066;2024-01-07T06:57:54;16.55;;;11.02;;
23474;SDS011;11910;52.086;21.066;2024-01-07T07:00:20;17.38;;;11.57;;
23474;SDS011;11910;52.086;21.066;2024-01-07T07:02:45;18.45;;;12.05;;
23474;SDS011;11910;52.086;21.066;2024-01-07T07:05:11;17.20;;;11.77;;
23474;SDS011;11910;52.086;21.066;2024-01-07T07:07:36;18.98;;;12.05;;
23474;SDS011;11910;52.086;21.066;2024-01-07T07:10:02;16.67;;;11.88;;
23474;SDS011;11910;52.086;21.066;2024-01-07T07:12:28;18.42;;;11.90;;
23474;SDS011;11910;52.086;21.066;2024-01-07T07:14:54;18.52;;;11.93;;
23474;SDS011;11910;52.086;21.066;2024-01-07T07:17:20;18.63;;;12.35;;
23474;SDS011;11910;52.086;21.066;2024-01-07T07:19:45;18.02;;;12.27;;
23474;SDS011;11910;52.086;21.066;2024-01-07T07:22:11;15.73;;;11.27;;
23474;SDS011;11910;52.086;21.066;2024-01-07T07:24:39;17.77;;;11.52;;
23474;SDS011;11910;52.086;21.066;2024-01-07T07:27:06;15.55;;;11.02;;
23474;SDS011;11910;52.086;21.066;2024-01-07T07:29:31;17.60;;;11.25;;
23474;SDS011;11910;52.086;21.066;2024-01-07T07:31:57;13.82;;;10.57;;
23474;SDS011;11910;52.086;21.066;2024-01-07T07:34:22;14.80;;;10.73;;
23474;SDS011;11910;52.086;21.066;2024-01-07T07:36:48;15.43;;;11.07;;
23474;SDS011;11910;52.086;21.066;2024-01-07T07:39:13;14.45;;;10.70;;
23474;SDS011;11910;52.086;21.066;2024-01-07T07:41:39;15.90;;;11.50;;
23474;SDS011;11910;52.086;21.066;2024-01-07T07:44:05;14.55;;;10.52;;
23474;SDS011;11910;52.086;21.066;2024-01-07T07:46:31;14.35;;;10.45;;
23474;SDS011;11910;52.086;21.066;2024-01-07T07:48:57;14.70;;;10.65;;
23474;SDS011;11910;52.086;21.066;2024-01-07T07:51:22;14.45;;;10.48;;
23474;SDS011;11910;52.086;21.066;2024-01-07T07:53:48;15.02;;;10.98;;
23474;SDS011;11910;52.086;21.066;2024-01-07T07:56:14;14.20;;;10.32;;
23474;SDS011;11910;52.086;21.066;2024-01-07T07:58:40;15.48;;;10.63;;
23474;SDS011;11910;52.086;21.066;2024-01-07T08:01:05;14.60;;;10.45;;
23474;SDS011;11910;52.086;21.066;2024-01-07T08:03:31;14.40;;;10.43;;
23474;SDS011;11910;52.086;21.066;2024-01-07T08:05:57;14.15;;;10.25;;
23474;SDS011;11910;52.086;21.066;2024-01-07T08:08:23;14.38;;;10.77;;
23474;SDS011;11910;52.086;21.066;2024-01-07T08:10:48;13.73;;;10.63;;
23474;SDS011;11910;52.086;21.066;2024-01-07T08:13:14;13.57;;;10.13;;
23474;SDS011;11910;52.086;21.066;2024-01-07T08:15:40;15.45;;;11.27;;
23474;SDS011;11910;52.086;21.066;2024-01-07T08:18:06;14.40;;;10.23;;
23474;SDS011;11910;52.086;21.066;2024-01-07T08:20:31;14.88;;;10.90;;
23474;SDS011;11910;52.086;21.066;2024-01-07T08:22:57;18.73;;;11.75;;
23474;SDS011;11910;52.086;21.066;2024-01-07T08:25:23;14.90;;;10.85;;
23474;SDS011;11910;52.086;21.066;2024-01-07T08:27:48;16.05;;;11.00;;
23474;SDS011;11910;52.086;21.066;2024-01-07T08:30:14;14.57;;;10.13;;
23474;SDS011;11910;52.086;21.066;2024-01-07T08:32:40;15.10;;;10.23;;
23474;SDS011;11910;52.086;21.066;2024-01-07T08:35:06;12.63;;;8.77;;
23474;SDS011;11910;52.086;21.066;2024-01-07T08:37:32;12.20;;;8.55;;
23474;SDS011;11910;52.086;21.066;2024-01-07T08:39:58;11.43;;;7.50;;
23474;SDS011;11910;52.086;21.066;2024-01-07T08:42:26;9.98;;;6.72;;
23474;SDS011;11910;52.086;21.066;2024-01-07T08:44:55;9.55;;;6.95;;
23474;SDS011;11910;52.086;21.066;2024-01-07T08:47:21;10.70;;;7.10;;
23474;SDS011;11910;52.086;21.066;2024-01-07T08:49:46;9.65;;;6.53;;
23474;SDS011;11910;52.086;21.066;2024-01-07T08:52:12;9.88;;;7.00;;
23474;SDS011;11910;52.086;21.066;2024-01-07T08:54:37;10.88;;;7.38;;
23474;SDS011;11910;52.086;21.066;2024-01-07T08:57:03;10.98;;;7.20;;
23474;SDS011;11910;52.086;21.066;2024-01-07T08:59:29;9.93;;;7.40;;
23474;SDS011;11910;52.086;21.066;2024-01-07T09:01:54;11.45;;;7.88;;
23474;SDS011;11910;52.086;21.066;2024-01-07T09:04:20;9.15;;;6.72;;
23474;SDS011;11910;52.086;21.066;2024-01-07T09:06:46;11.05;;;8.25;;
23474;SDS011;11910;52.086;21.066;2024-01-07T09:09:12;12.05;;;8.80;;
23474;SDS011;11910;52.086;21.066;2024-01-07T09:11:38;12.52;;;8.98;;
23474;SDS011;11910;52.086;21.066;2024-01-07T09:14:03;12.25;;;8.52;;
23474;SDS011;11910;52.086;21.066;2024-01-07T09:16:29;13.77;;;9.43;;
23474;SDS011;11910;52.086;21.066;2024-01-07T09:18:55;11.90;;;8.73;;
23474;SDS011;11910;52.086;21.066;2024-01-07T09:21:20;11.93;;;8.10;;
23474;SDS011;11910;52.086;21.066;2024-01-07T09:23:48;11.88;;;8.10;;
23474;SDS011;11910;52.086;21.066;2024-01-07T09:26:13;11.32;;;8.35;;
23474;SDS011;11910;52.086;21.066;2024-01-07T09:28:39;12.85;;;8.73;;
23474;SDS011;11910;52.086;21.066;2024-01-07T09:31:05;13.00;;;8.50;;
23474;SDS011;11910;52.086;21.066;2024-01-07T09:33:32;12.27;;;8.93;;
23474;SDS011;11910;52.086;21.066;2024-01-07T09:35:57;11.10;;;8.18;;
23474;SDS011;11910;52.086;21.066;2024-01-07T09:38:23;12.13;;;8.23;;
23474;SDS011;11910;52.086;21.066;2024-01-07T09:40:50;11.18;;;8.30;;
23474;SDS011;11910;52.086;21.066;2024-01-07T09:43:16;10.27;;;7.57;;
23474;SDS011;11910;52.086;21.066;2024-01-07T09:45:42;11.13;;;7.90;;
23474;SDS011;11910;52.086;21.066;2024-01-07T09:48:11;10.45;;;7.72;;
23474;SDS011;11910;52.086;21.066;2024-01-07T09:50:37;10.48;;;7.60;;
23474;SDS011;11910;52.086;21.066;2024-01-07T09:53:02;10.48;;;7.82;;
23474;SDS011;11910;52.086;21.066;2024-01-07T09:55:52;10.55;;;7.60;;
23474;SDS011;11910;52.086;21.066;2024-01-07T09:58:30;11.48;;;8.30;;
23474;SDS011;11910;52.086;21.066;2024-01-07T10:00:56;12.68;;;8.30;;
23474;SDS011;11910;52.086;21.066;2024-01-07T10:03:22;11.98;;;8.52;;
23474;SDS011;11910;52.086;21.066;2024-01-07T10:05:47;10.25;;;7.80;;
23474;SDS011;11910;52.086;21.066;2024-01-07T10:08:13;10.27;;;7.60;;
23474;SDS011;11910;52.086;21.066;2024-01-07T10:10:38;8.95;;;6.97;;
23474;SDS011;11910;52.086;21.066;2024-01-07T10:13:06;9.57;;;7.28;;
23474;SDS011;11910;52.086;21.066;2024-01-07T10:15:33;10.43;;;7.22;;
23474;SDS011;11910;52.086;21.066;2024-01-07T10:18:03;9.68;;;7.70;;
23474;SDS011;11910;52.086;21.066;2024-01-07T10:20:31;11.23;;;8.43;;
23474;SDS011;11910;52.086;21.066;2024-01-07T10:22:58;11.27;;;7.97;;
23474;SDS011;11910;52.086;21.066;2024-01-07T10:25:24;12.93;;;8.75;;
23474;SDS011;11910;52.086;21.066;2024-01-07T10:27:50;13.65;;;9.93;;
23474;SDS011;11910;52.086;21.066;2024-01-07T10:30:15;13.35;;;9.50;;
23474;SDS011;11910;52.086;21.066;2024-01-07T10:32:42;12.23;;;8.68;;
23474;SDS011;11910;52.086;21.066;2024-01-07T10:35:08;14.05;;;9.32;;
23474;SDS011;11910;52.086;21.066;2024-01-07T10:37:39;12.88;;;9.18;;
23474;SDS011;11910;52.086;21.066;2024-01-07T10:40:05;12.70;;;9.48;;
23474;SDS011;11910;52.086;21.066;2024-01-07T10:42:32;12.70;;;8.38;;
23474;SDS011;11910;52.086;21.066;2024-01-07T10:44:59;13.20;;;9.20;;
23474;SDS011;11910;52.086;21.066;2024-01-07T10:47:29;11.15;;;8.75;;
23474;SDS011;11910;52.086;21.066;2024-01-07T10:49:58;11.50;;;8.65;;
23474;SDS011;11910;52.086;21.066;2024-01-07T10:52:27;11.68;;;7.72;;
23474;SDS011;11910;52.086;21.066;2024-01-07T10:54:56;11.23;;;8.43;;
23474;SDS011;11910;52.086;21.066;2024-01-07T10:57:34;10.45;;;8.05;;
23474;SDS011;11910;52.086;21.066;2024-01-07T11:00:06;12.23;;;7.63;;
23474;SDS011;11910;52.086;21.066;2024-01-07T11:02:35;11.23;;;8.02;;
23474;SDS011;11910;52.086;21.066;2024-01-07T11:05:28;11.95;;;7.97;;
23474;SDS011;11910;52.086;21.066;2024-01-07T11:10:53;10.23;;;7.47;;
23474;SDS011;11910;52.086;21.066;2024-01-07T11:13:33;13.25;;;8.18;;
23474;SDS011;11910;52.086;21.066;2024-01-07T11:16:06;11.55;;;7.85;;
23474;SDS011;11910;52.086;21.066;2024-01-07T11:18:38;11.15;;;7.78;;
23474;SDS011;11910;52.086;21.066;2024-01-07T11:21:04;11.35;;;7.95;;
23474;SDS011;11910;52.086;21.066;2024-01-07T11:26:06;11.68;;;8.20;;
23474;SDS011;11910;52.086;21.066;2024-01-07T11:31:17;12.15;;;8.50;;
23474;SDS011;11910;52.086;21.066;2024-01-07T11:33:45;12.90;;;9.15;;
23474;SDS011;11910;52.086;21.066;2024-01-07T11:36:12;13.52;;;8.80;;
23474;SDS011;11910;52.086;21.066;2024-01-07T11:38:48;11.80;;;8.07;;
23474;SDS011;11910;52.086;21.066;2024-01-07T11:41:15;10.15;;;7.93;;
23474;SDS011;11910;52.086;21.066;2024-01-07T11:43:51;10.52;;;7.72;;
23474;SDS011;11910;52.086;21.066;2024-01-07T11:46:18;11.23;;;8.27;;
23474;SDS011;11910;52.086;21.066;2024-01-07T11:48:45;11.07;;;8.43;;
23474;SDS011;11910;52.086;21.066;2024-01-07T11:51:11;12.30;;;8.50;;
23474;SDS011;11910;52.086;21.066;2024-01-07T11:53:37;12.85;;;8.68;;
23474;SDS011;11910;52.086;21.066;2024-01-07T11:56:03;13.50;;;9.15;;
23474;SDS011;11910;52.086;21.066;2024-01-07T11:58:29;12.80;;;8.68;;
23474;SDS011;11910;52.086;21.066;2024-01-07T12:00:55;12.60;;;9.05;;
23474;SDS011;11910;52.086;21.066;2024-01-07T12:03:23;10.98;;;8.82;;
23474;SDS011;11910;52.086;21.066;2024-01-07T12:05:49;11.30;;;8.50;;
23474;SDS011;11910;52.086;21.066;2024-01-07T12:08:14;11.90;;;8.40;;
23474;SDS011;11910;52.086;21.066;2024-01-07T12:10:41;11.35;;;8.10;;
23474;SDS011;11910;52.086;21.066;2024-01-07T12:13:06;11.13;;;7.57;;
23474;SDS011;11910;52.086;21.066;2024-01-07T12:15:33;12.20;;;8.32;;
23474;SDS011;11910;52.086;21.066;2024-01-07T12:17:59;10.70;;;8.25;;
23474;SDS011;11910;52.086;21.066;2024-01-07T12:20:26;10.35;;;7.55;;
23474;SDS011;11910;52.086;21.066;2024-01-07T12:22:55;12.00;;;8.10;;
23474;SDS011;11910;52.086;21.066;2024-01-07T12:25:22;10.93;;;8.50;;
23474;SDS011;11910;52.086;21.066;2024-01-07T12:27:49;14.73;;;9.77;;
23474;SDS011;11910;52.086;21.066;2024-01-07T12:30:18;15.77;;;9.75;;
23474;SDS011;11910;52.086;21.066;2024-01-07T12:32:44;13.07;;;9.52;;
23474;SDS011;11910;52.086;21.066;2024-01-07T12:35:10;16.02;;;10.85;;
23474;SDS011;11910;52.086;21.066;2024-01-07T12:37:36;17.05;;;11.23;;
23474;SDS011;11910;52.086;21.066;2024-01-07T12:40:02;16.58;;;11.02;;
23474;SDS011;11910;52.086;21.066;2024-01-07T12:42:29;12.85;;;8.90;;
23474;SDS011;11910;52.086;21.066;2024-01-07T12:44:55;12.38;;;9.27;;
23474;SDS011;11910;52.086;21.066;2024-01-07T12:47:20;15.07;;;10.20;;
23474;SDS011;11910;52.086;21.066;2024-01-07T12:49:46;13.68;;;9.18;;
23474;SDS011;11910;52.086;21.066;2024-01-07T12:52:12;13.60;;;9.73;;
23474;SDS011;11910;52.086;21.066;2024-01-07T12:54:37;12.95;;;9.13;;
23474;SDS011;11910;52.086;21.066;2024-01-07T12:57:03;15.10;;;10.05;;
23474;SDS011;11910;52.086;21.066;2024-01-07T12:59:29;12.85;;;9.55;;
23474;SDS011;11910;52.086;21.066;2024-01-07T13:01:55;12.35;;;8.45;;
23474;SDS011;11910;52.086;21.066;2024-01-07T13:04:25;13.25;;;9.25;;
23474;SDS011;11910;52.086;21.066;2024-01-07T13:06:50;13.05;;;9.40;;
23474;SDS011;11910;52.086;21.066;2024-01-07T13:09:16;13.98;;;10.13;;
23474;SDS011;11910;52.086;21.066;2024-01-07T13:11:41;14.95;;;10.15;;
23474;SDS011;11910;52.086;21.066;2024-01-07T13:14:07;11.98;;;9.02;;
23474;SDS011;11910;52.086;21.066;2024-01-07T13:16:33;12.60;;;10.02;;
23474;SDS011;11910;52.086;21.066;2024-01-07T13:18:59;13.80;;;9.65;;
23474;SDS011;11910;52.086;21.066;2024-01-07T13:21:24;12.23;;;9.07;;
23474;SDS011;11910;52.086;21.066;2024-01-07T13:23:50;15.93;;;10.90;;
23474;SDS011;11910;52.086;21.066;2024-01-07T13:26:16;16.60;;;12.65;;
23474;SDS011;11910;52.086;21.066;2024-01-07T13:28:41;13.18;;;9.77;;
23474;SDS011;11910;52.086;21.066;2024-01-07T13:31:10;12.05;;;9.15;;
23474;SDS011;11910;52.086;21.066;2024-01-07T13:33:40;12.48;;;9.25;;
23474;SDS011;11910;52.086;21.066;2024-01-07T13:36:06;13.40;;;9.73;;
23474;SDS011;11910;52.086;21.066;2024-01-07T13:38:35;12.98;;;9.13;;
23474;SDS011;11910;52.086;21.066;2024-01-07T13:41:01;12.25;;;9.60;;
23474;SDS011;11910;52.086;21.066;2024-01-07T13:43:26;14.07;;;10.10;;
23474;SDS011;11910;52.086;21.066;2024-01-07T13:45:54;12.10;;;9.23;;
23474;SDS011;11910;52.086;21.066;2024-01-07T13:48:20;12.27;;;8.77;;
23474;SDS011;11910;52.086;21.066;2024-01-07T13:50:46;12.70;;;9.25;;
23474;SDS011;11910;52.086;21.066;2024-01-07T13:53:12;12.73;;;9.48;;
23474;SDS011;11910;52.086;21.066;2024-01-07T13:55:39;13.02;;;8.95;;
23474;SDS011;11910;52.086;21.066;2024-01-07T13:58:05;11.85;;;9.15;;
23474;SDS011;11910;52.086;21.066;2024-01-07T14:00:30;13.25;;;9.32;;
23474;SDS011;11910;52.086;21.066;2024-01-07T14:02:56;13.65;;;9.02;;
23474;SDS011;11910;52.086;21.066;2024-01-07T14:05:22;12.75;;;9.52;;
23474;SDS011;11910;52.086;21.066;2024-01-07T14:07:48;11.63;;;8.57;;
23474;SDS011;11910;52.086;21.066;2024-01-07T14:10:13;12.88;;;8.63;;
23474;SDS011;11910;52.086;21.066;2024-01-07T14:12:40;12.45;;;9.07;;
23474;SDS011;11910;52.086;21.066;2024-01-07T14:15:05;12.93;;;8.75;;
23474;SDS011;11910;52.086;21.066;2024-01-07T14:17:33;11.80;;;8.63;;